sensor_id;sensor_type;location;lat;lon;timestamp;temperature;humidity
11239;DHT22;5677;48.488;13.436;2023-07-31T00:00:45;21.10;62.40
11239;DHT22;5677;48.488;13.436;2023-07-31T00:03:12;21.10;62.60
11239;DHT22;5677;48.488;13.436;2023-07-31T00:05:39;21.10;62.70
11239;DHT22;5677;48.488;13.436;2023-07-31T00:08:07;21.10;62.70
11239;DHT22;5677;48.488;13.436;2023-07-31T00:10:33;21.00;62.60
11239;DHT22;5677;48.488;13.436;2023-07-31T00:13:00;21.00;62.60
11239;DHT22;5677;48.488;13.436;2023-07-31T00:15:27;21.10;62.70
11239;DHT22;5677;48.488;13.436;2023-07-31T00:17:54;21.10;62.90
11239;DHT22;5677;48.488;13.436;2023-07-31T00:20:21;21.10;62.80
11239;DHT22;5677;48.488;13.436;2023-07-31T00:22:47;21.10;62.90
11239;DHT22;5677;48.488;13.436;2023-07-31T00:25:16;21.10;63.10
11239;DHT22;5677;48.488;13.436;2023-07-31T00:27:42;21.10;63.10
11239;DHT22;5677;48.488;13.436;2023-07-31T00:30:11;21.10;63.20
11239;DHT22;5677;48.488;13.436;2023-07-31T00:32:38;21.10;63.30
11239;DHT22;5677;48.488;13.436;2023-07-31T00:35:05;21.10;63.30
11239;DHT22;5677;48.488;13.436;2023-07-31T00:37:32;21.10;63.30
11239;DHT22;5677;48.488;13.436;2023-07-31T00:39:59;21.10;63.40
11239;DHT22;5677;48.488;13.436;2023-07-31T00:42:27;21.00;63.30
11239;DHT22;5677;48.488;13.436;2023-07-31T00:44:53;21.10;63.40
11239;DHT22;5677;48.488;13.436;2023-07-31T00:47:20;21.00;64.20
11239;DHT22;5677;48.488;13.436;2023-07-31T00:49:48;21.00;63.40
11239;DHT22;5677;48.488;13.436;2023-07-31T00:52:15;21.00;63.40
11239;DHT22;5677;48.488;13.436;2023-07-31T00:54:41;21.00;63.40
11239;DHT22;5677;48.488;13.436;2023-07-31T00:57:09;21.00;63.40
11239;DHT22;5677;48.488;13.436;2023-07-31T00:59:37;21.00;63.50
11239;DHT22;5677;48.488;13.436;2023-07-31T01:02:04;21.00;63.50
11239;DHT22;5677;48.488;13.436;2023-07-31T01:04:31;21.00;63.50
11239;DHT22;5677;48.488;13.436;2023-07-31T01:07:03;21.00;63.50
11239;DHT22;5677;48.488;13.436;2023-07-31T01:09:36;21.00;63.50
11239;DHT22;5677;48.488;13.436;2023-07-31T01:12:07;21.00;63.50
11239;DHT22;5677;48.488;13.436;2023-07-31T01:14:34;21.00;63.60
11239;DHT22;5677;48.488;13.436;2023-07-31T01:17:02;21.00;63.60
11239;DHT22;5677;48.488;13.436;2023-07-31T01:19:28;21.00;63.60
11239;DHT22;5677;48.488;13.436;2023-07-31T01:22:16;21.00;63.60
11239;DHT22;5677;48.488;13.436;2023-07-31T01:24:55;21.00;63.60
11239;DHT22;5677;48.488;13.436;2023-07-31T01:27:29;21.00;63.60
11239;DHT22;5677;48.488;13.436;2023-07-31T01:30:04;21.00;63.60
11239;DHT22;5677;48.488;13.436;2023-07-31T01:32:36;21.00;63.60
11239;DHT22;5677;48.488;13.436;2023-07-31T01:35:05;21.00;63.70
11239;DHT22;5677;48.488;13.436;2023-07-31T01:37:32;21.00;63.70
11239;DHT22;5677;48.488;13.436;2023-07-31T01:39:59;21.00;63.70
11239;DHT22;5677;48.488;13.436;2023-07-31T01:45:49;21.00;63.80
11239;DHT22;5677;48.488;13.436;2023-07-31T01:48:15;21.00;63.70
11239;DHT22;5677;48.488;13.436;2023-07-31T01:50:42;21.00;63.80
11239;DHT22;5677;48.488;13.436;2023-07-31T01:53:09;21.00;63.80
11239;DHT22;5677;48.488;13.436;2023-07-31T01:55:37;21.00;63.80
11239;DHT22;5677;48.488;13.436;2023-07-31T01:58:04;20.90;63.80
11239;DHT22;5677;48.488;13.436;2023-07-31T02:00:31;20.90;63.90
11239;DHT22;5677;48.488;13.436;2023-07-31T02:02:59;20.90;63.90
11239;DHT22;5677;48.488;13.436;2023-07-31T02:05:26;21.00;63.90
11239;DHT22;5677;48.488;13.436;2023-07-31T02:07:52;21.00;64.00
11239;DHT22;5677;48.488;13.436;2023-07-31T02:10:19;21.00;64.00
11239;DHT22;5677;48.488;13.436;2023-07-31T02:12:46;21.00;63.90
11239;DHT22;5677;48.488;13.436;2023-07-31T02:15:13;20.90;63.90
11239;DHT22;5677;48.488;13.436;2023-07-31T02:17:39;20.90;63.90
11239;DHT22;5677;48.488;13.436;2023-07-31T02:20:08;20.90;64.00
11239;DHT22;5677;48.488;13.436;2023-07-31T02:25:57;20.90;64.00
11239;DHT22;5677;48.488;13.436;2023-07-31T02:28:24;20.90;64.00
11239;DHT22;5677;48.488;13.436;2023-07-31T02:30:51;20.90;64.00
11239;DHT22;5677;48.488;13.436;2023-07-31T02:33:18;20.90;64.10
11239;DHT22;5677;48.488;13.436;2023-07-31T02:35:46;20.90;64.10
11239;DHT22;5677;48.488;13.436;2023-07-31T02:38:13;20.90;64.10
11239;DHT22;5677;48.488;13.436;2023-07-31T02:40:40;20.90;64.10
11239;DHT22;5677;48.488;13.436;2023-07-31T02:43:07;20.90;64.10
11239;DHT22;5677;48.488;13.436;2023-07-31T02:45:34;20.90;64.10
11239;DHT22;5677;48.488;13.436;2023-07-31T02:48:01;20.90;64.10
11239;DHT22;5677;48.488;13.436;2023-07-31T02:50:27;20.90;64.10
11239;DHT22;5677;48.488;13.436;2023-07-31T02:52:56;20.90;64.10
11239;DHT22;5677;48.488;13.436;2023-07-31T02:55:22;20.90;64.20
11239;DHT22;5677;48.488;13.436;2023-07-31T02:57:49;20.90;64.10
11239;DHT22;5677;48.488;13.436;2023-07-31T03:00:17;20.90;64.20
11239;DHT22;5677;48.488;13.436;2023-07-31T03:02:44;20.90;64.10
11239;DHT22;5677;48.488;13.436;2023-07-31T03:05:11;20.90;64.10
11239;DHT22;5677;48.488;13.436;2023-07-31T03:07:38;20.90;64.10
11239;DHT22;5677;48.488;13.436;2023-07-31T03:10:07;20.90;64.10
11239;DHT22;5677;48.488;13.436;2023-07-31T03:12:34;20.90;64.10
11239;DHT22;5677;48.488;13.436;2023-07-31T03:15:01;20.90;64.10
11239;DHT22;5677;48.488;13.436;2023-07-31T03:17:27;20.90;64.20
11239;DHT22;5677;48.488;13.436;2023-07-31T03:19:54;20.90;64.10
11239;DHT22;5677;48.488;13.436;2023-07-31T03:22:21;20.80;64.00
11239;DHT22;5677;48.488;13.436;2023-07-31T03:24:48;20.80;64.00
11239;DHT22;5677;48.488;13.436;2023-07-31T03:27:16;20.80;64.00
11239;DHT22;5677;48.488;13.436;2023-07-31T03:29:42;20.80;64.00
11239;DHT22;5677;48.488;13.436;2023-07-31T03:32:09;20.80;64.00
11239;DHT22;5677;48.488;13.436;2023-07-31T03:34:36;20.80;63.80
11239;DHT22;5677;48.488;13.436;2023-07-31T03:37:03;20.90;63.60
11239;DHT22;5677;48.488;13.436;2023-07-31T03:39:30;20.80;63.20
11239;DHT22;5677;48.488;13.436;2023-07-31T03:41:57;20.80;63.00
11239;DHT22;5677;48.488;13.436;2023-07-31T03:44:25;20.80;62.90
11239;DHT22;5677;48.488;13.436;2023-07-31T03:46:52;20.80;62.90
11239;DHT22;5677;48.488;13.436;2023-07-31T03:49:19;20.80;62.90
11239;DHT22;5677;48.488;13.436;2023-07-31T03:51:45;20.80;62.80
11239;DHT22;5677;48.488;13.436;2023-07-31T03:54:12;20.80;62.80
11239;DHT22;5677;48.488;13.436;2023-07-31T03:56:40;20.80;62.80
11239;DHT22;5677;48.488;13.436;2023-07-31T03:59:07;20.80;62.80
11239;DHT22;5677;48.488;13.436;2023-07-31T04:01:35;20.80;62.80
11239;DHT22;5677;48.488;13.436;2023-07-31T04:04:02;20.80;62.80
11239;DHT22;5677;48.488;13.436;2023-07-31T04:06:29;20.80;62.80
11239;DHT22;5677;48.488;13.436;2023-07-31T04:08:55;20.80;62.80
11239;DHT22;5677;48.488;13.436;2023-07-31T04:11:22;20.80;62.90
11239;DHT22;5677;48.488;13.436;2023-07-31T04:13:49;20.80;62.80
11239;DHT22;5677;48.488;13.436;2023-07-31T04:16:15;20.80;62.80
11239;DHT22;5677;48.488;13.436;2023-07-31T04:18:44;20.80;62.80
11239;DHT22;5677;48.488;13.436;2023-07-31T04:21:10;20.80;62.80
11239;DHT22;5677;48.488;13.436;2023-07-31T04:23:37;20.80;62.80
11239;DHT22;5677;48.488;13.436;2023-07-31T04:26:04;20.70;62.80
11239;DHT22;5677;48.488;13.436;2023-07-31T04:28:31;20.70;62.70
11239;DHT22;5677;48.488;13.436;2023-07-31T04:30:58;20.80;62.70
11239;DHT22;5677;48.488;13.436;2023-07-31T04:33:24;20.70;62.70
11239;DHT22;5677;48.488;13.436;2023-07-31T04:35:53;20.70;62.80
11239;DHT22;5677;48.488;13.436;2023-07-31T04:38:21;20.70;62.80
11239;DHT22;5677;48.488;13.436;2023-07-31T04:40:48;20.70;62.70
11239;DHT22;5677;48.488;13.436;2023-07-31T04:43:15;20.70;62.80
11239;DHT22;5677;48.488;13.436;2023-07-31T04:45:44;20.70;62.80
11239;DHT22;5677;48.488;13.436;2023-07-31T04:48:12;20.70;62.80
11239;DHT22;5677;48.488;13.436;2023-07-31T04:50:39;20.70;62.80
11239;DHT22;5677;48.488;13.436;2023-07-31T04:53:07;20.80;62.90
11239;DHT22;5677;48.488;13.436;2023-07-31T04:55:34;20.70;62.90
11239;DHT22;5677;48.488;13.436;2023-07-31T04:58:01;20.70;62.80
11239;DHT22;5677;48.488;13.436;2023-07-31T05:00:28;20.80;62.80
11239;DHT22;5677;48.488;13.436;2023-07-31T05:02:55;20.70;62.80
11239;DHT22;5677;48.488;13.436;2023-07-31T05:05:21;20.70;62.80
11239;DHT22;5677;48.488;13.436;2023-07-31T05:07:48;20.70;62.70
11239;DHT22;5677;48.488;13.436;2023-07-31T05:10:16;20.80;62.80
11239;DHT22;5677;48.488;13.436;2023-07-31T05:12:43;20.70;62.80
11239;DHT22;5677;48.488;13.436;2023-07-31T05:15:10;20.80;62.80
11239;DHT22;5677;48.488;13.436;2023-07-31T05:17:37;20.80;62.80
11239;DHT22;5677;48.488;13.436;2023-07-31T05:20:04;20.80;62.80
11239;DHT22;5677;48.488;13.436;2023-07-31T05:22:31;20.70;62.80
11239;DHT22;5677;48.488;13.436;2023-07-31T05:24:58;20.70;62.80
11239;DHT22;5677;48.488;13.436;2023-07-31T05:27:26;20.80;62.70
11239;DHT22;5677;48.488;13.436;2023-07-31T05:29:53;20.80;62.70
11239;DHT22;5677;48.488;13.436;2023-07-31T05:32:20;20.80;62.70
11239;DHT22;5677;48.488;13.436;2023-07-31T05:34:46;20.80;62.60
11239;DHT22;5677;48.488;13.436;2023-07-31T05:37:13;20.80;62.70
11239;DHT22;5677;48.488;13.436;2023-07-31T05:39:40;20.80;62.70
11239;DHT22;5677;48.488;13.436;2023-07-31T05:42:07;20.80;62.60
11239;DHT22;5677;48.488;13.436;2023-07-31T05:44:35;20.80;62.60
11239;DHT22;5677;48.488;13.436;2023-07-31T05:47:02;20.80;62.60
11239;DHT22;5677;48.488;13.436;2023-07-31T05:49:29;20.80;62.60
11239;DHT22;5677;48.488;13.436;2023-07-31T05:51:55;20.80;62.50
11239;DHT22;5677;48.488;13.436;2023-07-31T05:54:22;20.80;62.50
11239;DHT22;5677;48.488;13.436;2023-07-31T05:56:49;20.80;62.50
11239;DHT22;5677;48.488;13.436;2023-07-31T05:59:16;20.80;62.50
11239;DHT22;5677;48.488;13.436;2023-07-31T06:01:44;20.80;62.60
11239;DHT22;5677;48.488;13.436;2023-07-31T06:04:11;20.80;59.70
11239;DHT22;5677;48.488;13.436;2023-07-31T06:06:38;20.80;60.40
11239;DHT22;5677;48.488;13.436;2023-07-31T06:09:05;20.70;61.50
11239;DHT22;5677;48.488;13.436;2023-07-31T06:11:32;20.70;61.70
11239;DHT22;5677;48.488;13.436;2023-07-31T06:13:59;20.80;61.10
11239;DHT22;5677;48.488;13.436;2023-07-31T06:16:26;20.80;60.80
11239;DHT22;5677;48.488;13.436;2023-07-31T06:18:54;20.80;60.60
11239;DHT22;5677;48.488;13.436;2023-07-31T06:21:21;20.70;60.20
11239;DHT22;5677;48.488;13.436;2023-07-31T06:23:47;20.80;60.00
11239;DHT22;5677;48.488;13.436;2023-07-31T06:26:14;20.80;60.10
11239;DHT22;5677;48.488;13.436;2023-07-31T06:28:41;20.80;60.10
11239;DHT22;5677;48.488;13.436;2023-07-31T06:31:08;20.80;60.10
11239;DHT22;5677;48.488;13.436;2023-07-31T06:33:35;20.80;59.90
11239;DHT22;5677;48.488;13.436;2023-07-31T06:36:04;20.90;59.40
11239;DHT22;5677;48.488;13.436;2023-07-31T06:38:31;20.90;59.20
11239;DHT22;5677;48.488;13.436;2023-07-31T06:40:58;20.90;59.20
11239;DHT22;5677;48.488;13.436;2023-07-31T06:43:24;20.90;59.20
11239;DHT22;5677;48.488;13.436;2023-07-31T06:45:51;21.00;58.90
11239;DHT22;5677;48.488;13.436;2023-07-31T06:48:18;21.00;58.30
11239;DHT22;5677;48.488;13.436;2023-07-31T06:50:45;21.00;58.10
11239;DHT22;5677;48.488;13.436;2023-07-31T06:53:13;21.00;57.80
11239;DHT22;5677;48.488;13.436;2023-07-31T06:55:39;21.00;59.00
11239;DHT22;5677;48.488;13.436;2023-07-31T06:58:06;21.00;59.40
11239;DHT22;5677;48.488;13.436;2023-07-31T07:00:33;21.00;59.00
11239;DHT22;5677;48.488;13.436;2023-07-31T07:03:00;21.00;59.20
11239;DHT22;5677;48.488;13.436;2023-07-31T07:05:26;21.00;59.30
11239;DHT22;5677;48.488;13.436;2023-07-31T07:07:53;20.90;59.10
11239;DHT22;5677;48.488;13.436;2023-07-31T07:10:21;20.90;59.20
11239;DHT22;5677;48.488;13.436;2023-07-31T07:12:48;20.90;59.30
11239;DHT22;5677;48.488;13.436;2023-07-31T07:15:15;20.90;59.40
11239;DHT22;5677;48.488;13.436;2023-07-31T07:17:42;20.90;59.50
11239;DHT22;5677;48.488;13.436;2023-07-31T07:20:09;20.90;59.50
11239;DHT22;5677;48.488;13.436;2023-07-31T07:25:59;20.90;59.60
11239;DHT22;5677;48.488;13.436;2023-07-31T07:28:26;20.90;59.50
11239;DHT22;5677;48.488;13.436;2023-07-31T07:30:53;20.90;59.50
11239;DHT22;5677;48.488;13.436;2023-07-31T07:33:20;20.90;59.40
11239;DHT22;5677;48.488;13.436;2023-07-31T07:35:47;20.90;59.40
11239;DHT22;5677;48.488;13.436;2023-07-31T07:38:14;20.90;59.50
11239;DHT22;5677;48.488;13.436;2023-07-31T07:40:41;20.90;59.50
11239;DHT22;5677;48.488;13.436;2023-07-31T07:43:10;20.90;59.60
11239;DHT22;5677;48.488;13.436;2023-07-31T07:45:36;20.90;59.50
11239;DHT22;5677;48.488;13.436;2023-07-31T07:48:03;20.90;58.70
11239;DHT22;5677;48.488;13.436;2023-07-31T07:50:30;21.00;58.50
11239;DHT22;5677;48.488;13.436;2023-07-31T07:52:57;20.90;57.20
11239;DHT22;5677;48.488;13.436;2023-07-31T07:55:24;20.90;56.20
11239;DHT22;5677;48.488;13.436;2023-07-31T07:57:51;20.80;54.70
11239;DHT22;5677;48.488;13.436;2023-07-31T08:00:19;20.80;54.70
11239;DHT22;5677;48.488;13.436;2023-07-31T08:06:07;20.80;56.70
11239;DHT22;5677;48.488;13.436;2023-07-31T08:08:35;20.80;56.20
11239;DHT22;5677;48.488;13.436;2023-07-31T08:11:02;20.90;56.60
11239;DHT22;5677;48.488;13.436;2023-07-31T08:13:29;20.90;57.90
11239;DHT22;5677;48.488;13.436;2023-07-31T08:15:57;20.90;58.40
11239;DHT22;5677;48.488;13.436;2023-07-31T08:18:24;20.90;58.70
11239;DHT22;5677;48.488;13.436;2023-07-31T08:20:50;21.00;58.90
11239;DHT22;5677;48.488;13.436;2023-07-31T08:23:17;21.00;58.80
11239;DHT22;5677;48.488;13.436;2023-07-31T08:25:45;21.00;58.90
11239;DHT22;5677;48.488;13.436;2023-07-31T08:28:11;21.00;58.70
11239;DHT22;5677;48.488;13.436;2023-07-31T08:30:38;21.00;58.60
11239;DHT22;5677;48.488;13.436;2023-07-31T08:33:06;21.00;58.50
11239;DHT22;5677;48.488;13.436;2023-07-31T08:35:33;21.00;57.70
11239;DHT22;5677;48.488;13.436;2023-07-31T08:38:00;21.00;58.10
11239;DHT22;5677;48.488;13.436;2023-07-31T08:40:27;21.00;56.90
11239;DHT22;5677;48.488;13.436;2023-07-31T08:42:55;21.00;55.50
11239;DHT22;5677;48.488;13.436;2023-07-31T08:45:27;20.90;54.90
11239;DHT22;5677;48.488;13.436;2023-07-31T08:47:55;20.90;55.00
11239;DHT22;5677;48.488;13.436;2023-07-31T08:50:23;20.90;55.50
11239;DHT22;5677;48.488;13.436;2023-07-31T08:52:51;20.90;55.00
11239;DHT22;5677;48.488;13.436;2023-07-31T08:55:18;20.90;54.90
11239;DHT22;5677;48.488;13.436;2023-07-31T08:57:49;20.90;56.30
11239;DHT22;5677;48.488;13.436;2023-07-31T09:00:16;20.90;56.40
11239;DHT22;5677;48.488;13.436;2023-07-31T09:06:09;20.90;55.10
11239;DHT22;5677;48.488;13.436;2023-07-31T09:08:37;20.90;55.20
11239;DHT22;5677;48.488;13.436;2023-07-31T09:11:08;20.80;55.30
11239;DHT22;5677;48.488;13.436;2023-07-31T09:13:34;20.90;56.40
11239;DHT22;5677;48.488;13.436;2023-07-31T09:16:01;20.90;57.10
11239;DHT22;5677;48.488;13.436;2023-07-31T09:18:28;20.90;57.50
11239;DHT22;5677;48.488;13.436;2023-07-31T09:21:02;21.00;57.70
11239;DHT22;5677;48.488;13.436;2023-07-31T09:23:41;21.00;57.80
11239;DHT22;5677;48.488;13.436;2023-07-31T09:26:08;21.00;57.80
11239;DHT22;5677;48.488;13.436;2023-07-31T09:28:36;21.10;57.90
11239;DHT22;5677;48.488;13.436;2023-07-31T09:31:03;21.10;57.80
11239;DHT22;5677;48.488;13.436;2023-07-31T09:33:29;21.10;56.80
11239;DHT22;5677;48.488;13.436;2023-07-31T09:35:58;21.10;57.00
11239;DHT22;5677;48.488;13.436;2023-07-31T09:38:25;21.10;57.20
11239;DHT22;5677;48.488;13.436;2023-07-31T09:40:53;21.10;57.30
11239;DHT22;5677;48.488;13.436;2023-07-31T09:43:21;21.10;57.40
11239;DHT22;5677;48.488;13.436;2023-07-31T09:45:54;21.10;57.60
11239;DHT22;5677;48.488;13.436;2023-07-31T09:48:24;21.20;57.70
11239;DHT22;5677;48.488;13.436;2023-07-31T09:50:53;21.20;57.70
11239;DHT22;5677;48.488;13.436;2023-07-31T09:53:28;21.10;57.70
11239;DHT22;5677;48.488;13.436;2023-07-31T09:55:58;21.20;57.80
11239;DHT22;5677;48.488;13.436;2023-07-31T09:58:27;21.20;57.80
11239;DHT22;5677;48.488;13.436;2023-07-31T10:00:55;21.20;57.80
11239;DHT22;5677;48.488;13.436;2023-07-31T10:03:24;21.20;57.80
11239;DHT22;5677;48.488;13.436;2023-07-31T10:05:53;21.20;57.80
11239;DHT22;5677;48.488;13.436;2023-07-31T10:08:27;21.20;57.80
11239;DHT22;5677;48.488;13.436;2023-07-31T10:10:58;21.20;57.90
11239;DHT22;5677;48.488;13.436;2023-07-31T10:13:26;21.20;57.90
11239;DHT22;5677;48.488;13.436;2023-07-31T10:15:54;21.20;57.90
11239;DHT22;5677;48.488;13.436;2023-07-31T10:18:25;21.20;58.00
11239;DHT22;5677;48.488;13.436;2023-07-31T10:20:53;21.20;57.90
11239;DHT22;5677;48.488;13.436;2023-07-31T10:23:22;21.20;58.00
11239;DHT22;5677;48.488;13.436;2023-07-31T10:25:50;21.20;57.90
11239;DHT22;5677;48.488;13.436;2023-07-31T10:28:20;21.20;58.00
11239;DHT22;5677;48.488;13.436;2023-07-31T10:30:48;21.20;58.00
11239;DHT22;5677;48.488;13.436;2023-07-31T10:33:16;21.30;58.80
11239;DHT22;5677;48.488;13.436;2023-07-31T10:35:43;21.30;58.10
11239;DHT22;5677;48.488;13.436;2023-07-31T10:38:10;21.20;58.70
11239;DHT22;5677;48.488;13.436;2023-07-31T10:40:38;21.30;58.10
11239;DHT22;5677;48.488;13.436;2023-07-31T10:43:05;21.30;58.10
11239;DHT22;5677;48.488;13.436;2023-07-31T10:45:36;21.30;58.10
11239;DHT22;5677;48.488;13.436;2023-07-31T10:48:05;21.30;58.10
11239;DHT22;5677;48.488;13.436;2023-07-31T10:50:33;21.30;58.10
11239;DHT22;5677;48.488;13.436;2023-07-31T10:53:03;21.30;58.20
11239;DHT22;5677;48.488;13.436;2023-07-31T10:55:32;21.30;58.20
11239;DHT22;5677;48.488;13.436;2023-07-31T10:58:06;21.30;58.20
11239;DHT22;5677;48.488;13.436;2023-07-31T11:00:37;21.30;58.20
11239;DHT22;5677;48.488;13.436;2023-07-31T11:03:05;21.30;58.20
11239;DHT22;5677;48.488;13.436;2023-07-31T11:05:45;21.30;58.20
11239;DHT22;5677;48.488;13.436;2023-07-31T11:08:14;21.30;58.20
11239;DHT22;5677;48.488;13.436;2023-07-31T11:10:42;21.30;58.20
11239;DHT22;5677;48.488;13.436;2023-07-31T11:13:09;21.30;58.20
11239;DHT22;5677;48.488;13.436;2023-07-31T11:15:38;21.30;58.20
11239;DHT22;5677;48.488;13.436;2023-07-31T11:18:05;21.30;58.20
11239;DHT22;5677;48.488;13.436;2023-07-31T11:20:35;21.30;58.20
11239;DHT22;5677;48.488;13.436;2023-07-31T11:23:03;21.30;58.20
11239;DHT22;5677;48.488;13.436;2023-07-31T11:25:31;21.30;58.20
11239;DHT22;5677;48.488;13.436;2023-07-31T11:28:03;21.30;58.20
11239;DHT22;5677;48.488;13.436;2023-07-31T11:30:30;21.30;58.20
11239;DHT22;5677;48.488;13.436;2023-07-31T11:32:58;21.30;58.20
11239;DHT22;5677;48.488;13.436;2023-07-31T11:35:24;21.40;58.20
11239;DHT22;5677;48.488;13.436;2023-07-31T11:37:51;21.30;58.20
11239;DHT22;5677;48.488;13.436;2023-07-31T11:40:18;21.30;58.30
11239;DHT22;5677;48.488;13.436;2023-07-31T11:42:45;21.40;58.20
11239;DHT22;5677;48.488;13.436;2023-07-31T11:45:12;21.40;58.20
11239;DHT22;5677;48.488;13.436;2023-07-31T11:47:39;21.40;58.20
11239;DHT22;5677;48.488;13.436;2023-07-31T11:50:11;21.40;58.20
11239;DHT22;5677;48.488;13.436;2023-07-31T11:52:40;21.40;58.20
11239;DHT22;5677;48.488;13.436;2023-07-31T11:55:09;21.40;58.20
11239;DHT22;5677;48.488;13.436;2023-07-31T11:57:37;21.40;58.20
11239;DHT22;5677;48.488;13.436;2023-07-31T12:00:06;21.50;58.30
11239;DHT22;5677;48.488;13.436;2023-07-31T12:02:34;21.40;58.20
11239;DHT22;5677;48.488;13.436;2023-07-31T12:05:01;21.50;58.20
11239;DHT22;5677;48.488;13.436;2023-07-31T12:07:45;21.50;58.30
11239;DHT22;5677;48.488;13.436;2023-07-31T12:10:26;21.50;58.20
11239;DHT22;5677;48.488;13.436;2023-07-31T12:13:01;21.50;58.20
11239;DHT22;5677;48.488;13.436;2023-07-31T12:15:38;21.50;58.20
11239;DHT22;5677;48.488;13.436;2023-07-31T12:18:07;21.50;58.20
11239;DHT22;5677;48.488;13.436;2023-07-31T12:20:34;21.50;58.20
11239;DHT22;5677;48.488;13.436;2023-07-31T12:23:02;21.60;58.20
11239;DHT22;5677;48.488;13.436;2023-07-31T12:25:33;21.60;58.20
11239;DHT22;5677;48.488;13.436;2023-07-31T12:28:05;21.60;58.20
11239;DHT22;5677;48.488;13.436;2023-07-31T12:30:36;21.50;58.20
11239;DHT22;5677;48.488;13.436;2023-07-31T12:33:04;21.60;58.20
11239;DHT22;5677;48.488;13.436;2023-07-31T12:35:46;21.60;58.20
11239;DHT22;5677;48.488;13.436;2023-07-31T12:38:14;21.60;58.20
11239;DHT22;5677;48.488;13.436;2023-07-31T12:40:42;21.60;58.20
11239;DHT22;5677;48.488;13.436;2023-07-31T12:43:09;21.60;58.10
11239;DHT22;5677;48.488;13.436;2023-07-31T12:45:35;21.60;58.10
11239;DHT22;5677;48.488;13.436;2023-07-31T12:48:02;21.70;58.20
11239;DHT22;5677;48.488;13.436;2023-07-31T12:50:29;21.70;58.20
11239;DHT22;5677;48.488;13.436;2023-07-31T12:52:57;21.70;58.30
11239;DHT22;5677;48.488;13.436;2023-07-31T12:55:25;21.70;58.30
11239;DHT22;5677;48.488;13.436;2023-07-31T12:57:52;21.70;58.90
11239;DHT22;5677;48.488;13.436;2023-07-31T13:00:18;21.70;58.20
11239;DHT22;5677;48.488;13.436;2023-07-31T13:02:45;21.70;58.10
11239;DHT22;5677;48.488;13.436;2023-07-31T13:05:12;21.70;57.30
11239;DHT22;5677;48.488;13.436;2023-07-31T13:07:39;21.80;56.20
11239;DHT22;5677;48.488;13.436;2023-07-31T13:10:07;21.80;56.40
11239;DHT22;5677;48.488;13.436;2023-07-31T13:12:35;21.80;56.10
11239;DHT22;5677;48.488;13.436;2023-07-31T13:15:03;21.80;56.00
11239;DHT22;5677;48.488;13.436;2023-07-31T13:17:29;21.90;54.80
11239;DHT22;5677;48.488;13.436;2023-07-31T13:19:56;21.90;54.80
11239;DHT22;5677;48.488;13.436;2023-07-31T13:22:23;21.90;54.20
11239;DHT22;5677;48.488;13.436;2023-07-31T13:24:50;21.90;53.90
11239;DHT22;5677;48.488;13.436;2023-07-31T13:27:16;22.00;54.00
11239;DHT22;5677;48.488;13.436;2023-07-31T13:29:46;22.00;53.80
11239;DHT22;5677;48.488;13.436;2023-07-31T13:32:13;22.00;53.80
11239;DHT22;5677;48.488;13.436;2023-07-31T13:34:39;21.90;54.00
11239;DHT22;5677;48.488;13.436;2023-07-31T13:37:06;21.90;53.70
11239;DHT22;5677;48.488;13.436;2023-07-31T13:39:33;21.90;53.80
11239;DHT22;5677;48.488;13.436;2023-07-31T13:42:00;21.90;53.70
11239;DHT22;5677;48.488;13.436;2023-07-31T13:44:26;22.00;53.60
11239;DHT22;5677;48.488;13.436;2023-07-31T13:46:55;22.00;53.80
11239;DHT22;5677;48.488;13.436;2023-07-31T13:49:22;22.00;53.60
11239;DHT22;5677;48.488;13.436;2023-07-31T13:51:49;22.00;53.70
11239;DHT22;5677;48.488;13.436;2023-07-31T13:54:15;22.00;53.40
11239;DHT22;5677;48.488;13.436;2023-07-31T13:56:43;22.00;53.50
11239;DHT22;5677;48.488;13.436;2023-07-31T13:59:10;22.00;53.20
11239;DHT22;5677;48.488;13.436;2023-07-31T14:01:37;22.00;53.10
11239;DHT22;5677;48.488;13.436;2023-07-31T14:04:05;22.00;53.30
11239;DHT22;5677;48.488;13.436;2023-07-31T14:06:32;22.00;53.60
11239;DHT22;5677;48.488;13.436;2023-07-31T14:08:59;22.00;54.00
11239;DHT22;5677;48.488;13.436;2023-07-31T14:11:26;22.00;54.30
11239;DHT22;5677;48.488;13.436;2023-07-31T14:13:53;22.00;54.60
11239;DHT22;5677;48.488;13.436;2023-07-31T14:16:19;22.00;54.80
11239;DHT22;5677;48.488;13.436;2023-07-31T14:18:46;21.90;55.00
11239;DHT22;5677;48.488;13.436;2023-07-31T14:21:14;21.90;55.10
11239;DHT22;5677;48.488;13.436;2023-07-31T14:23:41;22.00;55.20
11239;DHT22;5677;48.488;13.436;2023-07-31T14:26:08;21.90;55.40
11239;DHT22;5677;48.488;13.436;2023-07-31T14:28:35;22.00;55.50
11239;DHT22;5677;48.488;13.436;2023-07-31T14:31:02;21.90;55.50
11239;DHT22;5677;48.488;13.436;2023-07-31T14:33:29;21.90;55.60
11239;DHT22;5677;48.488;13.436;2023-07-31T14:35:56;21.90;55.60
11239;DHT22;5677;48.488;13.436;2023-07-31T14:38:24;21.90;55.70
11239;DHT22;5677;48.488;13.436;2023-07-31T14:40:51;21.90;55.70
11239;DHT22;5677;48.488;13.436;2023-07-31T14:43:17;22.00;55.40
11239;DHT22;5677;48.488;13.436;2023-07-31T14:45:44;22.00;54.60
11239;DHT22;5677;48.488;13.436;2023-07-31T14:48:12;22.00;53.30
11239;DHT22;5677;48.488;13.436;2023-07-31T14:50:39;22.00;53.10
11239;DHT22;5677;48.488;13.436;2023-07-31T14:53:06;22.00;52.70
11239;DHT22;5677;48.488;13.436;2023-07-31T14:55:34;22.00;52.40
11239;DHT22;5677;48.488;13.436;2023-07-31T14:58:01;22.00;52.40
11239;DHT22;5677;48.488;13.436;2023-07-31T15:00:28;22.00;51.90
11239;DHT22;5677;48.488;13.436;2023-07-31T15:02:55;22.00;52.00
11239;DHT22;5677;48.488;13.436;2023-07-31T15:05:22;22.00;52.20
11239;DHT22;5677;48.488;13.436;2023-07-31T15:07:48;22.00;52.30
11239;DHT22;5677;48.488;13.436;2023-07-31T15:10:15;21.90;52.50
11239;DHT22;5677;48.488;13.436;2023-07-31T15:12:43;21.90;52.90
11239;DHT22;5677;48.488;13.436;2023-07-31T15:15:10;21.90;53.10
11239;DHT22;5677;48.488;13.436;2023-07-31T15:17:37;21.90;52.80
11239;DHT22;5677;48.488;13.436;2023-07-31T15:20:05;21.90;52.40
11239;DHT22;5677;48.488;13.436;2023-07-31T15:22:32;21.90;52.50
11239;DHT22;5677;48.488;13.436;2023-07-31T15:24:58;21.90;52.70
11239;DHT22;5677;48.488;13.436;2023-07-31T15:27:25;22.00;52.90
11239;DHT22;5677;48.488;13.436;2023-07-31T15:29:53;22.00;52.80
11239;DHT22;5677;48.488;13.436;2023-07-31T15:32:21;22.00;52.80
11239;DHT22;5677;48.488;13.436;2023-07-31T15:34:49;22.00;52.60
11239;DHT22;5677;48.488;13.436;2023-07-31T15:37:17;22.00;52.50
11239;DHT22;5677;48.488;13.436;2023-07-31T15:39:43;22.00;52.50
11239;DHT22;5677;48.488;13.436;2023-07-31T15:42:10;22.00;52.40
11239;DHT22;5677;48.488;13.436;2023-07-31T15:44:37;22.10;52.40
11239;DHT22;5677;48.488;13.436;2023-07-31T15:47:05;22.00;52.20
11239;DHT22;5677;48.488;13.436;2023-07-31T15:49:32;22.00;52.40